• Join FlightAware (Why Join?)
  • Login
  • US Flag 
08:35PM EDT


 

Airport Tracker/Info


-or-


 

Live Flight TrackerFlight Track Log ✈ ASQ5958 ✈ 08-Feb-2014 ✈ KBNA - KEWR

Flight Track Log - Related Links

Times and Time Zones

All times are in EST time to prevent confusion due to time zone crossing. See the ASQ5958 flight status page for this flight to view local times or setup timezone preferences in your user account.

Time Position Orientation Groundspeed Altitude Reporting Facility
EST Latitude Longitude Course Direction KTS MPH feet Rate Location/Type
07:51AM 36.1333 -86.6833 68° East 148 170 1,400  Level Nashville TRACON
07:52AM 36.1500 -86.7333 292° West 172 198 3,600 2,520 Climbing Nashville TRACON
07:52AM 36.1833 -86.7667 321° Northwest 245 282 6,000 2,460 Climbing Nashville TRACON
07:53AM 36.2500 -86.7500 11° North 296 341 8,300 2,100 Climbing Nashville TRACON
07:54AM 36.1978 -86.0818 80° East  Level FlightAware Approximate
07:55AM 36.2479 -85.9470 64° Northeast  Level FlightAware Approximate
07:55AM 36.2453 -86.6158 92° East 313 360 10,900  Level Memphis Center
07:56AM 36.2964 -85.8107 68° East  Level FlightAware Approximate
07:56AM 36.2350 -86.4944 96° East 343 395 12,400  Level Memphis Center
07:57AM 36.2242 -86.3647 96° East 368 423 14,100 1,620 Climbing Memphis Center
07:58AM 36.2128 -86.2306 96° East 384 442 15,700 1,560 Climbing Memphis Center
07:59AM 36.2025 -86.0931 95° East 395 455 17,300 1,320 Climbing Memphis Center
08:00AM 36.2503 -85.9617 66° East 411 473 18,500 1,260 Climbing Memphis Center
08:01AM 36.3072 -85.8325 61° Northeast 422 486 20,000 1,380 Climbing Indianapolis Center
08:02AM 36.3650 -85.7075 60° Northeast 430 495 21,400 1,500 Climbing Indianapolis Center
08:03AM 36.4283 -85.5753 59° Northeast 438 504 23,000 1,620 Climbing Indianapolis Center
08:04AM 36.4911 -85.4425 60° Northeast 442 509 24,700 1,560 Climbing Indianapolis Center
08:05AM 36.5531 -85.3119 59° Northeast 438 504 26,300 1,620 Climbing Indianapolis Center
08:06AM 36.6056 -85.1733 65° Northeast 439 505 28,000 1,620 Climbing Indianapolis Center
08:07AM 36.6492 -85.0339 69° East 433 498 29,600 1,440 Climbing Indianapolis Center
08:08AM 36.6942 -84.8897 69° East 440 506 31,000 1,320 Climbing Indianapolis Center
08:09AM 36.7389 -84.7428 69° East 446 513 32,400 960 Climbing Indianapolis Center
08:10AM 36.7847 -84.5914 69° East 459 528 33,000 660 Climbing Indianapolis Center
08:11AM 36.8439 -84.4022 69° East 495 570 33,800 960 Climbing Indianapolis Center
08:12AM 36.8919 -84.2403 70° East 500 575 35,000 540 Climbing Indianapolis Center
08:13AM 36.9417 -84.0731 70° East 507 583 35,000  Level Indianapolis Center
08:14AM 36.9947 -83.8936 70° East 535 616 35,000  Level Indianapolis Center
08:15AM 37.0489 -83.7142 69° East 546 628 35,000  Level Indianapolis Center
08:16AM 37.1022 -83.5342 70° East 549 632 35,000  Level Indianapolis Center
08:17AM 37.1556 -83.3531 70° East 549 632 35,000  Level Indianapolis Center
08:18AM 37.2086 -83.1731 70° East 549 632 35,000  Level Indianapolis Center
08:19AM 37.2625 -82.9900 70° East 552 635 35,000  Level Indianapolis Center
08:20AM 37.3142 -82.8069 70° East 551 634 35,000  Level Indianapolis Center
08:21AM 37.3658 -82.6258 70° East 548 631 35,000  Level Indianapolis Center
08:22AM 37.4183 -82.4444 70° East 549 632 35,000  Level Indianapolis Center
08:23AM 37.4703 -82.2600 70° East 554 638 35,000  Level Indianapolis Center
08:24AM 37.5217 -82.0761 71° East 554 638 35,000  Level Indianapolis Center
08:25AM 37.5728 -81.8942 70° East 552 635 35,000  Level Indianapolis Center
08:26AM 37.6211 -81.7103 72° East 551 634 35,000  Level Indianapolis Center
08:27AM 37.6725 -81.5239 71° East 558 642 35,000  Level Indianapolis Center
08:28AM 37.7239 -81.3403 70° East 563 648 35,000  Level Indianapolis Center
08:29AM 37.7792 -81.1186 72° East 565 650 35,000  Level Indianapolis Center
08:30AM 37.7939 -80.9264 84° East 566 651 35,000  Level Indianapolis Center
08:31AM 37.8061 -80.7347 85° East 559 643 35,000  Level Indianapolis Center
08:32AM 37.8172 -80.5814 85° East 561 646 35,000  Level Washington Center
08:33AM 37.8292 -80.3850 86° East 561 646 35,000  Level Washington Center
08:34AM 37.8419 -80.1647 86° East 556 640 35,000  Level Washington Center
08:35AM 37.8556 -79.9708 85° East 556 640 35,000  Level Washington Center
08:36AM 37.8669 -79.7717 86° East 556 640 35,000  Level Washington Center
08:37AM 37.8797 -79.5778 85° East 551 634 35,000  Level Washington Center
08:38AM 37.8881 -79.3833 87° East 551 634 35,000  Level Washington Center
08:39AM 37.9006 -79.1867 85° East 556 640 35,000  Level Washington Center
08:40AM 37.9186 -78.9928 83° East 556 640 35,000  Level Washington Center
08:41AM 37.9428 -78.7936 81° East 556 640 35,000  Level Washington Center
08:42AM 37.9642 -78.6156 81° East 562 647 35,000  Level Washington Center
08:43AM 37.9858 -78.4161 82° East 567 652 35,000  Level Washington Center
08:44AM 38.0133 -78.2142 80° East 572 658 35,000  Level Washington Center
08:45AM 38.0756 -78.0292 67° East 572 658 35,000  Level Washington Center
08:46AM 38.1644 -77.8522 57° Northeast 572 658 35,000  Level Washington Center
08:47AM 38.2511 -77.6753 58° Northeast 577 664 35,000  Level Washington Center
08:49AM 38.4433 -77.2886 58° Northeast 598 688 35,000  Level New York Center
08:50AM 38.5294 -77.1142 58° Northeast 594 684 35,000  Level New York Center
08:51AM 38.6119 -76.9414 59° Northeast 592 681 35,000  Level Washington Center
08:52AM 38.7011 -76.7675 57° Northeast 592 681 35,000  Level Washington Center
08:53AM 38.8153 -76.6172 46° Northeast 584 672 35,000 -780 Level Washington Center
08:54AM 38.9331 -76.4831 42° Northeast 569 655 33,500 -1,860 Descending Washington Center
08:55AM 39.0486 -76.3506 42° Northeast 558 642 31,300 -2,580 Descending Washington Center
08:56AM 39.1639 -76.2153 42° Northeast 558 642 28,400 -2,220 Descending Washington Center
08:57AM 39.2792 -76.0850 41° Northeast 553 636 27,000 -720 Descending Washington Center
08:58AM 39.3922 -75.9486 43° Northeast 548 631 27,000 -360 Level Washington Center
08:59AM 39.5072 -75.8147 42° Northeast 548 631 26,300 -1,980 Descending Washington Center
09:01AM 39.7156 -75.5644 46° Northeast 521 600 21,200 -2,700 Descending Washington Center
09:02AM 39.8094 -75.4539 42° Northeast 487 560 18,300 -2,520 Descending Washington Center
09:03AM 39.8944 -75.3508 43° Northeast 446 513 16,200 -2,040 Descending Washington Center
09:04AM 39.9714 -75.2558 43° Northeast 408 470 14,200 -1,680 Descending Washington Center
09:05AM 40.0358 -75.1769 43° Northeast 373 429 12,900 -1,380 Descending Washington Center
09:07AM 40.1333 -75.0550 44° Northeast 318 366 10,900 -1,560 Descending New York Center
09:08AM 40.1958 -74.9789 43° Northeast 306 352 9,200 -960 Descending New York Center
09:10AM 40.3322 -74.8586 34° Northeast 281 323 8,000 -420 Descending New York Center
09:11AM 40.4167 -74.8000 28° Northeast 278 320 8,000  Level New York TRACON
09:12AM 40.4833 -74.7667 21° North 278 320 8,000  Level New York TRACON
09:13AM 40.5500 -74.7333 21° North 277 319 8,000 -180 Level New York TRACON
09:14AM 40.6167 -74.7167 11° North 272 313 7,700 -900 Descending New York TRACON
09:15AM 40.7000 -74.7000 North 260 299 6,200 -900 Descending New York TRACON
09:16AM 40.7664 -74.6956 North 261 300 6,000 -360 Descending New York Center
09:17AM 40.8278 -74.6308 39° Northeast 276 318 5,500 -540 Descending New York Center
09:18AM 40.8667 -74.5500 58° Northeast 278 320 5,000 -300 Descending New York TRACON
09:19AM 40.8833 -74.4667 75° East 275 316 5,000  Level New York TRACON
09:20AM 40.9167 -74.3667 66° East 277 319 5,000 -240 Level New York TRACON
09:21AM 40.9333 -74.2667 78° East 278 320 4,600 -600 Descending New York TRACON
09:22AM 40.9000 -74.1833 118° Southeast 266 306 3,900 -840 Descending New York TRACON
09:23AM 40.8833 -74.0833 102° East 264 304 3,100 -540 Descending New York TRACON
09:24AM 40.8167 -74.0833 180° South 238 274 2,900 -600 Descending New York TRACON
09:25AM 40.7667 -74.1167 207° Southwest 193 222 1,900 -1,080 Descending New York TRACON
09:26AM 40.7333 -74.1333 201° Southwest 143 165 800 -1,260 Descending New York TRACON